Time;durP1;ratioP1;P1;durP2;ratioP2;P2;SDS_P1;SDS_P2;PMS_P1;PMS_P2;Temp;Humidity;BMP_temperature;BMP_pressure;BME280_temperature;BME280_humidity;BME280_pressure;Samples;Min_cycle;Max_cycle;Signal;HPM_P1;HPM_P2
2022/07/12 05:03:19;;;;;;;13.20;6.40;;;16.60;99.90;;;;;;5119323;23;20191;-76
2022/07/12 05:05:45;;;;;;;12.38;6.30;;;16.70;99.90;;;;;;4944081;29;20032;-76
2022/07/12 05:08:10;;;;;;;13.23;6.82;;;16.60;99.90;;;;;;4947951;29;20216;-75
2022/07/12 05:10:36;;;;;;;10.85;5.47;;;16.70;99.90;;;;;;4947386;29;20028;-75
2022/07/12 05:13:02;;;;;;;8.40;5.32;;;16.80;99.90;;;;;;4946869;29;20233;-75
2022/07/12 05:15:28;;;;;;;8.38;5.20;;;16.90;99.90;;;;;;4942344;29;20362;-75
2022/07/12 05:17:53;;;;;;;9.15;4.72;;;16.90;99.90;;;;;;4946847;29;20024;-74
2022/07/12 05:20:19;;;;;;;9.20;5.00;;;16.90;99.90;;;;;;4947920;29;20023;-75
2022/07/12 05:22:45;;;;;;;9.10;4.88;;;16.90;99.90;;;;;;4947061;29;20019;-76
2022/07/12 05:25:11;;;;;;;10.27;5.00;;;17.00;99.90;;;;;;4947508;29;20036;-74
2022/07/12 05:27:37;;;;;;;9.85;5.18;;;17.00;99.90;;;;;;4947567;29;20031;-75
2022/07/12 05:30:04;;;;;;;9.68;4.63;;;17.10;99.20;;;;;;4946723;29;20065;-76
2022/07/12 05:32:30;;;;;;;7.45;5.63;;;17.20;99.20;;;;;;4911596;29;20144;-75
2022/07/12 05:34:55;;;;;;;8.68;5.22;;;17.20;99.90;;;;;;4928868;29;20298;-75
2022/07/12 05:37:24;;;;;;;10.43;5.10;;;17.20;99.90;;;;;;4947479;29;20035;-75
2022/07/12 05:39:51;;;;;;;9.52;4.75;;;17.20;99.90;;;;;;4946140;29;20272;-76
2022/07/12 05:42:16;;;;;;;8.50;4.72;;;17.40;99.70;;;;;;4930539;29;20028;-75
2022/07/12 05:44:42;;;;;;;7.32;5.07;;;17.40;99.30;;;;;;4947050;29;20031;-75
2022/07/12 05:47:08;;;;;;;8.68;4.90;;;17.60;98.50;;;;;;4946292;29;20224;-75
2022/07/12 05:49:34;;;;;;;9.63;4.70;;;17.70;98.70;;;;;;4947498;29;20281;-75
2022/07/12 05:54:44;;;;;;;14.23;4.32;;;17.90;98.10;;;;;;4947426;29;20319;-76
2022/07/12 05:57:11;;;;;;;9.38;4.55;;;18.10;97.20;;;;;;4929946;29;20027;-75
2022/07/12 05:59:36;;;;;;;8.60;4.20;;;18.20;97.10;;;;;;4946918;29;20213;-76
2022/07/12 06:02:03;;;;;;;7.07;4.47;;;18.30;96.50;;;;;;4940796;29;20093;-75
2022/07/12 06:04:29;;;;;;;8.43;5.20;;;18.40;96.30;;;;;;4909096;29;20033;-75
2022/07/12 06:06:56;;;;;;;11.23;5.28;;;18.50;95.80;;;;;;4900733;29;20028;-75
2022/07/12 06:09:22;;;;;;;9.27;4.78;;;18.50;95.60;;;;;;4904814;29;20037;-76
2022/07/12 06:11:48;;;;;;;7.30;4.10;;;18.60;95.40;;;;;;4892832;29;20033;-76
2022/07/12 06:14:14;;;;;;;5.18;3.08;;;18.70;95.10;;;;;;4895731;29;20092;-75
2022/07/12 06:16:39;;;;;;;6.65;3.78;;;18.90;94.10;;;;;;4912147;29;20048;-76
2022/07/12 06:19:05;;;;;;;4.78;3.17;;;18.90;93.80;;;;;;4910661;29;20025;-76
2022/07/12 06:21:31;;;;;;;7.75;3.00;;;19.10;93.80;;;;;;4907913;29;20036;-76
2022/07/12 06:23:56;;;;;;;5.47;2.70;;;19.10;93.30;;;;;;4877657;29;20049;-75
2022/07/12 06:26:22;;;;;;;4.85;2.55;;;19.20;93.10;;;;;;4887609;29;20033;-78
2022/07/12 06:28:48;;;;;;;7.10;2.28;;;19.30;92.80;;;;;;4872169;29;20055;-76
2022/07/12 06:31:14;;;;;;;5.78;2.40;;;19.40;92.20;;;;;;4888177;29;20497;-77
2022/07/12 06:33:40;;;;;;;3.70;1.80;;;19.50;92.00;;;;;;4897168;29;20017;-76
2022/07/12 06:36:06;;;;;;;6.57;1.77;;;19.60;91.40;;;;;;4894606;29;20064;-76
2022/07/12 06:38:31;;;;;;;4.32;1.95;;;19.70;91.10;;;;;;4872285;29;20341;-76
2022/07/12 06:40:57;;;;;;;5.07;1.73;;;19.80;90.40;;;;;;4905163;29;20048;-77
2022/07/12 06:43:23;;;;;;;3.70;1.58;;;20.00;90.50;;;;;;4907169;29;20125;-76
2022/07/12 06:45:49;;;;;;;2.72;1.63;;;20.20;89.90;;;;;;4906321;29;20100;-77
2022/07/12 06:48:14;;;;;;;3.55;1.55;;;20.30;88.90;;;;;;4906105;29;20032;-76
2022/07/12 06:50:40;;;;;;;2.65;1.30;;;20.50;87.90;;;;;;4906597;29;20100;-76
2022/07/12 06:53:06;;;;;;;3.53;1.45;;;20.50;86.80;;;;;;4905874;29;20298;-77
2022/07/12 06:55:31;;;;;;;2.67;1.08;;;20.60;87.30;;;;;;4906276;29;20314;-76
2022/07/12 06:57:57;;;;;;;4.15;1.13;;;20.70;85.60;;;;;;4905515;29;20092;-76
2022/07/12 07:00:23;;;;;;;3.92;1.40;;;20.80;85.10;;;;;;4904663;29;20043;-77
2022/07/12 07:02:49;;;;;;;4.10;1.25;;;20.80;86.00;;;;;;4915321;29;20243;-76
2022/07/12 07:05:17;;;;;;;1.88;1.30;;;20.80;85.30;;;;;;4944017;29;20032;-76
2022/07/12 07:07:43;;;;;;;2.75;1.30;;;20.90;84.50;;;;;;4944382;29;20036;-76
2022/07/12 07:10:09;;;;;;;3.45;1.67;;;21.00;83.90;;;;;;4933394;29;20237;-76
2022/07/12 07:12:34;;;;;;;3.47;1.83;;;20.90;83.70;;;;;;4925454;29;20052;-76
2022/07/12 07:15:00;;;;;;;5.35;1.48;;;20.80;84.00;;;;;;4929381;29;20039;-76
2022/07/12 07:17:26;;;;;;;2.90;0.95;;;20.90;83.90;;;;;;4946002;29;20387;-76
2022/07/12 07:19:52;;;;;;;4.82;1.63;;;21.10;82.90;;;;;;4955819;29;20086;-76
2022/07/12 07:22:18;;;;;;;1.83;0.88;;;21.20;83.90;;;;;;4945784;29;20046;-75
2022/07/12 07:24:44;;;;;;;5.20;1.17;;;21.40;83.00;;;;;;4956830;29;20111;-77
2022/07/12 07:27:10;;;;;;;2.85;0.90;;;21.50;82.40;;;;;;4942500;29;20452;-75
2022/07/12 07:32:20;;;;;;;4.30;0.80;;;21.60;81.00;;;;;;4914477;29;20055;-76
2022/07/12 07:34:46;;;;;;;2.88;0.57;;;21.70;80.60;;;;;;4888505;29;20064;-75
2022/07/12 07:37:12;;;;;;;1.65;0.68;;;21.80;79.40;;;;;;4886864;29;20029;-76
2022/07/12 07:39:37;;;;;;;1.20;0.40;;;21.90;79.20;;;;;;4887721;29;20367;-75
2022/07/12 07:42:03;;;;;;;1.95;0.80;;;22.00;78.90;;;;;;4913948;29;20024;-76
2022/07/12 07:44:29;;;;;;;2.22;0.75;;;22.00;79.40;;;;;;4887485;29;20040;-76
2022/07/12 07:46:56;;;;;;;1.20;0.68;;;22.10;79.10;;;;;;4911084;29;20349;-75
2022/07/12 07:49:31;;;;;;;1.60;0.40;;;22.30;79.00;;;;;;4925494;29;20042;-78
2022/07/12 07:51:58;;;;;;;4.30;0.68;;;22.40;76.90;;;;;;4925647;29;20100;-78
2022/07/12 07:54:23;;;;;;;2.47;0.50;;;22.30;77.30;;;;;;4925713;29;20031;-78
2022/07/12 07:56:49;;;;;;;1.88;0.60;;;22.20;77.50;;;;;;4925728;29;20058;-78
2022/07/12 07:59:15;;;;;;;3.10;0.60;;;22.30;78.50;;;;;;4925196;29;20107;-76
2022/07/12 08:01:52;;;;;;;2.60;0.68;;;22.30;77.20;;;;;;4926732;29;20392;-78
2022/07/12 08:04:18;;;;;;;1.42;0.32;;;22.50;77.60;;;;;;4943175;29;20417;-78
2022/07/12 08:06:45;;;;;;;2.20;0.60;;;22.70;76.00;;;;;;4944031;29;20038;-78
2022/07/12 08:09:12;;;;;;;0.95;0.30;;;22.80;74.60;;;;;;4927690;29;20116;-77
2022/07/12 08:11:38;;;;;;;3.13;0.52;;;22.80;75.20;;;;;;4963040;29;20301;-78
2022/07/12 08:14:05;;;;;;;1.30;0.40;;;22.80;75.20;;;;;;4955293;29;20031;-78
2022/07/12 08:16:31;;;;;;;1.40;0.30;;;22.90;75.30;;;;;;4931641;29;20124;-77
2022/07/12 08:18:57;;;;;;;1.08;0.40;;;22.90;74.50;;;;;;4923320;29;20047;-77
2022/07/12 08:21:23;;;;;;;2.33;0.30;;;22.80;74.30;;;;;;4924921;29;20099;-77
2022/07/12 08:23:50;;;;;;;0.77;0.20;;;22.90;74.50;;;;;;4924818;29;20090;-78
2022/07/12 08:26:16;;;;;;;1.00;0.30;;;22.90;73.30;;;;;;4924861;29;20135;-78
2022/07/12 08:28:42;;;;;;;0.93;0.20;;;22.90;72.50;;;;;;4925394;29;20035;-78
2022/07/12 08:31:08;;;;;;;1.25;0.20;;;22.90;72.50;;;;;;4933179;29;20036;-75
2022/07/12 08:33:33;;;;;;;0.60;0.15;;;23.00;72.50;;;;;;4942766;29;20040;-76
2022/07/12 08:35:59;;;;;;;1.27;0.20;;;23.10;71.80;;;;;;4943553;29;20067;-75
2022/07/12 08:38:25;;;;;;;1.48;0.40;;;23.10;71.30;;;;;;4943696;29;20099;-77
2022/07/12 08:40:52;;;;;;;0.47;0.20;;;23.10;71.80;;;;;;4941994;29;20330;-77
2022/07/12 08:43:17;;;;;;;0.52;0.10;;;23.00;71.30;;;;;;4946977;29;20043;-77
2022/07/12 08:45:43;;;;;;;1.35;0.30;;;22.90;70.70;;;;;;4940130;29;20098;-77
2022/07/12 08:48:09;;;;;;;1.48;0.40;;;22.90;71.70;;;;;;4959190;29;20031;-77
2022/07/12 08:50:35;;;;;;;0.68;0.30;;;23.10;72.40;;;;;;4966185;29;20201;-76
2022/07/12 08:53:01;;;;;;;1.77;0.30;;;23.20;71.60;;;;;;4965757;29;20027;-76
2022/07/12 08:55:29;;;;;;;1.25;0.40;;;23.30;71.40;;;;;;4966143;29;20375;-78
2022/07/12 08:57:57;;;;;;;0.75;0.30;;;23.40;71.50;;;;;;4965405;29;20035;-76
2022/07/12 09:00:25;;;;;;;1.05;0.32;;;23.30;71.30;;;;;;4964955;29;20027;-75
2022/07/12 09:02:55;;;;;;;0.95;0.40;;;23.40;71.60;;;;;;4948239;29;20055;-77
2022/07/12 09:05:27;;;;;;;1.88;0.50;;;23.60;71.50;;;;;;4966223;29;20062;-76
2022/07/12 09:08:13;;;;;;;0.90;0.40;;;23.70;71.20;;;;;;4964631;29;20027;-77
2022/07/12 09:10:54;;;;;;;2.08;0.40;;;23.90;70.10;;;;;;4963975;29;20039;-75
2022/07/12 09:13:20;;;;;;;1.45;0.45;;;24.00;69.20;;;;;;4962965;29;20346;-77
2022/07/12 09:15:47;;;;;;;1.75;0.38;;;24.00;69.50;;;;;;4963662;29;20051;-75
2022/07/12 09:18:15;;;;;;;1.88;0.40;;;24.20;70.20;;;;;;4965575;29;20031;-76
2022/07/12 09:20:43;;;;;;;0.90;0.30;;;24.60;69.50;;;;;;4948719;29;20031;-74
2022/07/12 09:23:10;;;;;;;;;;;24.80;67.60;;;;;;4966122;29;20049;-74
2022/07/12 09:25:43;;;;;;;1.60;0.30;;;25.00;68.00;;;;;;4965894;29;19902;-75
2022/07/12 09:28:09;;;;;;;3.63;0.82;;;25.30;67.20;;;;;;4965714;29;20035;-75
2022/07/12 09:30:37;;;;;;;1.13;0.30;;;25.60;66.30;;;;;;4965150;29;20039;-75
2022/07/12 09:36:07;;;;;;;0.93;0.30;;;25.80;64.90;;;;;;4965504;29;20094;-76
2022/07/12 09:38:33;;;;;;;1.02;0.28;;;25.70;64.60;;;;;;4964435;29;20317;-77
2022/07/12 09:40:59;;;;;;;1.95;0.40;;;25.60;65.10;;;;;;4965398;29;20109;-76
2022/07/12 09:43:27;;;;;;;0.85;0.30;;;25.40;65.50;;;;;;4966024;29;20055;-75
2022/07/12 09:45:53;;;;;;;0.80;0.40;;;25.20;65.30;;;;;;4951805;29;20038;-75
2022/07/12 09:48:20;;;;;;;1.58;0.70;;;25.10;65.90;;;;;;4951218;29;20034;-74
2022/07/12 09:50:49;;;;;;;0.95;0.22;;;24.90;66.50;;;;;;4969189;29;20043;-75
2022/07/12 09:53:17;;;;;;;;;;;24.70;67.50;;;;;;4967061;28;20038;-76
2022/07/12 09:55:50;;;;;;;2.03;0.43;;;24.70;68.60;;;;;;4948376;29;19914;-73
2022/07/12 09:58:30;;;;;;;3.65;0.40;;;24.80;68.10;;;;;;4964858;29;20035;-75
2022/07/12 10:01:02;;;;;;;0.98;0.30;;;24.70;67.80;;;;;;4964534;28;20311;-76
2022/07/12 10:03:31;;;;;;;0.80;0.30;;;24.50;68.50;;;;;;4965451;29;20051;-75
2022/07/12 10:06:00;;;;;;;2.45;0.38;;;24.40;68.10;;;;;;4964883;29;20074;-77
2022/07/12 10:08:26;;;;;;;1.15;0.30;;;24.10;69.20;;;;;;4965361;29;20090;-75
2022/07/12 10:10:52;;;;;;;1.65;0.40;;;24.00;69.10;;;;;;4965688;29;20107;-77
2022/07/12 10:13:19;;;;;;;1.90;0.77;;;24.00;68.70;;;;;;4964709;29;20031;-75
2022/07/12 10:15:47;;;;;;;1.77;0.40;;;24.00;68.20;;;;;;4962928;29;20359;-74
2022/07/12 10:18:21;;;;;;;0.70;0.20;;;24.10;68.40;;;;;;4963622;29;20060;-76
2022/07/12 10:20:48;;;;;;;1.83;0.13;;;24.30;67.90;;;;;;4964383;29;20191;-75
2022/07/12 10:23:20;;;;;;;0.67;0.30;;;24.50;67.70;;;;;;4947065;29;20039;-74
2022/07/12 10:25:49;;;;;;;3.13;0.30;;;24.70;66.70;;;;;;4964266;28;20213;-75
2022/07/12 10:28:17;;;;;;;1.30;0.40;;;24.90;66.70;;;;;;4964297;29;20066;-75
2022/07/12 10:30:48;;;;;;;1.23;0.40;;;25.10;66.50;;;;;;4963918;28;20259;-78
2022/07/12 10:33:16;;;;;;;3.45;0.32;;;25.20;66.10;;;;;;4963613;29;20059;-76
2022/07/12 10:35:58;;;;;;;0.80;0.30;;;25.30;66.00;;;;;;4964203;29;20046;-74
2022/07/12 10:38:25;;;;;;;1.55;0.17;;;25.40;65.00;;;;;;4963916;29;20039;-75
2022/07/12 10:40:51;;;;;;;0.30;0.10;;;25.30;65.10;;;;;;4969709;28;20098;-75
2022/07/12 10:46:28;;;;;;;0.40;0.20;;;25.10;65.30;;;;;;4983022;28;20045;-73
2022/07/12 10:49:32;;;;;;;0.30;0.10;;;25.10;66.40;;;;;;4983511;28;20204;-76
2022/07/12 10:52:10;;;;;;;2.85;0.45;;;25.20;66.40;;;;;;4982260;28;20047;-76
2022/07/12 10:54:40;;;;;;;1.23;0.20;;;25.40;66.20;;;;;;4983366;28;20041;-76
2022/07/12 10:57:06;;;;;;;0.85;0.25;;;25.40;66.40;;;;;;4982474;28;20264;-76
2022/07/12 10:59:36;;;;;;;1.35;0.10;;;25.50;65.60;;;;;;4972417;28;20071;-75
2022/07/12 11:02:05;;;;;;;1.02;0.20;;;25.60;65.20;;;;;;4962645;28;20075;-79
2022/07/12 11:04:30;;;;;;;0.90;0.20;;;25.80;64.80;;;;;;4963511;28;20023;-79
2022/07/12 11:07:05;;;;;;;20.02;1.25;;;25.70;64.40;;;;;;4963528;29;20202;-81
2022/07/12 11:09:31;;;;;;;1.17;0.32;;;25.70;65.20;;;;;;4962752;29;20351;-80
2022/07/12 11:11:57;;;;;;;0.80;0.30;;;25.80;64.90;;;;;;4946406;29;20040;-80
2022/07/12 11:14:30;;;;;;;1.08;0.22;;;25.90;65.00;;;;;;4962639;29;20031;-80
2022/07/12 11:16:59;;;;;;;2.40;0.68;;;26.00;64.70;;;;;;4958627;28;20182;-80
2022/07/12 11:19:32;;;;;;;1.00;0.20;;;26.00;63.80;;;;;;4940616;28;20037;-81
2022/07/12 11:21:58;;;;;;;6.40;0.40;;;26.20;63.90;;;;;;4953465;29;20298;-80
2022/07/12 11:24:29;;;;;;;4.97;0.32;;;26.30;64.20;;;;;;4953648;29;20074;-79
2022/07/12 11:26:55;;;;;;;1.83;0.20;;;26.50;64.00;;;;;;4959351;28;20031;-79
2022/07/12 11:29:22;;;;;;;0.70;0.20;;;26.50;63.50;;;;;;4953505;29;20240;-78
2022/07/12 11:31:48;;;;;;;0.47;0.10;;;26.80;62.30;;;;;;4948736;28;20043;-77
2022/07/12 11:34:24;;;;;;;0.70;0.20;;;27.10;62.10;;;;;;4969235;29;20035;-79
2022/07/12 11:36:55;;;;;;;0.88;0.30;;;26.90;62.50;;;;;;4967974;29;20075;-78
2022/07/12 11:39:35;;;;;;;2.00;0.63;;;27.30;62.00;;;;;;4965041;29;20360;-78
2022/07/12 11:42:01;;;;;;;1.13;0.30;;;27.90;60.90;;;;;;4964860;29;20050;-80
2022/07/12 11:44:47;;;;;;;0.63;0.10;;;28.50;60.00;;;;;;4964470;29;20023;-79
2022/07/12 11:47:14;;;;;;;2.38;0.40;;;29.20;58.70;;;;;;4960964;28;20380;-79
2022/07/12 11:49:58;;;;;;;0.60;0.15;;;30.00;57.70;;;;;;4962290;29;20035;-80
2022/07/12 11:52:24;;;;;;;1.38;0.13;;;30.60;57.00;;;;;;4962469;29;20062;-77
2022/07/12 11:54:52;;;;;;;0.80;0.10;;;31.30;55.80;;;;;;4949277;29;20027;-79
2022/07/12 11:57:23;;;;;;;0.65;0.15;;;32.10;54.90;;;;;;4942294;29;20040;-78
2022/07/12 11:59:49;;;;;;;0.75;0.20;;;32.80;54.10;;;;;;4956876;29;20228;-79
2022/07/12 12:02:16;;;;;;;0.75;0.10;;;33.80;52.80;;;;;;4962193;28;20051;-80
2022/07/12 12:04:54;;;;;;;0.22;0.10;;;34.20;51.90;;;;;;4963258;29;20050;-80
2022/07/12 12:07:22;;;;;;;0.32;0.10;;;35.00;51.20;;;;;;4963419;29;20090;-79
2022/07/12 12:10:11;;;;;;;0.13;0.10;;;35.50;50.00;;;;;;4961933;29;20038;-79
2022/07/12 12:12:40;;;;;;;1.98;0.10;;;36.10;49.40;;;;;;4963368;29;20046;-77
2022/07/12 12:15:08;;;;;;;2.88;0.20;;;36.80;48.70;;;;;;4974288;28;20439;-77
2022/07/12 12:17:36;;;;;;;3.40;0.20;;;37.30;48.50;;;;;;4964861;28;20049;-77
2022/07/12 12:20:08;;;;;;;;;;;37.80;47.80;;;;;;4965324;28;20453;-77
2022/07/12 12:22:34;;;;;;;1.95;0.43;;;37.90;47.40;;;;;;4968362;28;19913;-76
2022/07/12 12:25:03;;;;;;;0.88;0.20;;;37.70;47.20;;;;;;4961976;28;20045;-78
2022/07/12 12:27:28;;;;;;;3.03;0.25;;;38.30;46.30;;;;;;4963249;29;20309;-78
2022/07/12 12:29:59;;;;;;;0.98;0.20;;;38.90;45.20;;;;;;4962540;29;20042;-78
2022/07/12 12:32:26;;;;;;;2.60;0.55;;;39.10;45.30;;;;;;4961336;29;20503;-78
2022/07/12 12:35:13;;;;;;;2.40;0.20;;;40.30;45.10;;;;;;4962725;29;20095;-77
2022/07/12 12:37:40;;;;;;;2.53;0.10;;;40.80;44.40;;;;;;4962453;29;20180;-77
2022/07/12 12:40:06;;;;;;;0.70;0.10;;;40.70;44.10;;;;;;4962217;29;20042;-77
2022/07/12 12:42:32;;;;;;;0.65;0.10;;;40.60;44.10;;;;;;4962503;29;20027;-78
2022/07/12 12:44:58;;;;;;;0.73;0.20;;;41.10;44.20;;;;;;4961091;29;20078;-78
2022/07/12 12:47:36;;;;;;;0.75;0.17;;;41.80;43.90;;;;;;4961343;28;20261;-78
2022/07/12 12:50:02;;;;;;;0.77;0.10;;;42.50;43.30;;;;;;4945577;29;20134;-78
2022/07/12 12:52:31;;;;;;;1.52;0.10;;;42.30;42.80;;;;;;4961970;29;20222;-77
2022/07/12 12:54:57;;;;;;;0.22;0.00;;;42.20;42.70;;;;;;4962163;29;20086;-76
2022/07/12 12:57:25;;;;;;;0.63;0.07;;;42.30;42.60;;;;;;4962209;29;20054;-79
2022/07/12 12:59:52;;;;;;;1.13;0.20;;;42.40;42.70;;;;;;4947915;29;20191;-77
2022/07/12 13:02:20;;;;;;;0.80;0.10;;;42.50;42.90;;;;;;4941622;29;20055;-79
2022/07/12 13:04:46;;;;;;;0.40;0.10;;;42.80;42.20;;;;;;4943078;29;20031;-78
2022/07/12 13:07:11;;;;;;;1.27;0.13;;;43.40;42.10;;;;;;4942265;29;20321;-80
2022/07/12 13:09:37;;;;;;;0.90;0.10;;;44.10;41.80;;;;;;4947339;29;20165;-78
2022/07/12 13:12:04;;;;;;;0.93;0.10;;;43.60;41.60;;;;;;4962080;29;20055;-78
2022/07/12 13:14:30;;;;;;;1.17;0.10;;;44.10;41.30;;;;;;4925191;29;20035;-77
2022/07/12 13:16:56;;;;;;;0.60;0.10;;;43.70;41.40;;;;;;4942316;29;20057;-76
2022/07/12 13:19:22;;;;;;;0.77;0.10;;;44.10;40.80;;;;;;4944083;29;20043;-78
2022/07/12 13:21:48;;;;;;;0.88;0.03;;;43.30;41.00;;;;;;4960662;29;20198;-75
2022/07/12 13:24:13;;;;;;;3.60;0.20;;;43.00;41.20;;;;;;4962694;28;20042;-75
2022/07/12 13:26:39;;;;;;;0.82;0.10;;;43.40;41.50;;;;;;4956657;29;20373;-72
2022/07/12 13:29:05;;;;;;;0.70;0.10;;;43.90;41.40;;;;;;4966766;28;20031;-72
2022/07/12 13:31:31;;;;;;;0.47;0.10;;;44.60;40.90;;;;;;4963367;28;20063;-73
2022/07/12 13:33:57;;;;;;;0.68;0.10;;;44.50;40.90;;;;;;4966857;29;20050;-73
2022/07/12 13:36:23;;;;;;;0.32;0.10;;;45.30;40.70;;;;;;4966190;29;20119;-73
2022/07/12 13:38:49;;;;;;;0.90;0.32;;;45.70;40.40;;;;;;4966512;29;20050;-72
2022/07/12 13:41:15;;;;;;;0.50;0.10;;;46.90;40.10;;;;;;4965820;29;20098;-73
2022/07/12 13:43:41;;;;;;;0.23;0.00;;;46.70;39.40;;;;;;4966610;29;20023;-73
2022/07/12 13:46:07;;;;;;;0.30;0.10;;;46.70;39.50;;;;;;4965922;29;20039;-73
2022/07/12 13:48:33;;;;;;;1.00;0.20;;;47.80;39.90;;;;;;4966683;29;20248;-73
2022/07/12 13:50:59;;;;;;;2.92;0.20;;;47.80;38.90;;;;;;4966733;29;20035;-73
2022/07/12 13:53:25;;;;;;;0.13;0.10;;;47.60;38.60;;;;;;4966214;29;20272;-74
2022/07/12 13:55:51;;;;;;;1.23;0.25;;;48.20;38.60;;;;;;4966318;29;20031;-74
2022/07/12 13:58:17;;;;;;;1.80;0.30;;;47.20;38.40;;;;;;4965741;29;20059;-74
2022/07/12 14:00:43;;;;;;;0.93;0.10;;;47.80;38.70;;;;;;4948496;29;20094;-74
2022/07/12 14:03:08;;;;;;;3.83;0.20;;;47.50;38.30;;;;;;4965538;29;20470;-73
2022/07/12 14:05:35;;;;;;;0.90;0.20;;;47.90;38.20;;;;;;4966342;29;20039;-73
2022/07/12 14:08:01;;;;;;;;;;;47.20;38.10;;;;;;4966825;29;20142;-73
2022/07/12 14:10:27;;;;;;;1.20;0.10;;;46.90;38.40;;;;;;4965717;28;20068;-74
2022/07/12 14:12:53;;;;;;;1.00;0.17;;;46.60;39.10;;;;;;4966314;29;20771;-73
2022/07/12 14:15:19;;;;;;;0.77;0.10;;;47.20;38.50;;;;;;4976484;28;20109;-72
2022/07/12 14:17:50;;;;;;;0.73;0.10;;;47.40;37.90;;;;;;4985403;28;20052;-72
2022/07/12 14:20:19;;;;;;;1.55;0.20;;;47.70;38.00;;;;;;4984941;28;20030;-72
2022/07/12 14:22:45;;;;;;;0.47;0.20;;;48.00;38.20;;;;;;4985455;28;20046;-72
2022/07/12 14:25:11;;;;;;;0.45;0.10;;;48.80;37.50;;;;;;4984324;28;20027;-74
2022/07/12 14:27:38;;;;;;;0.15;0.10;;;48.80;37.20;;;;;;4971814;28;20090;-73
2022/07/12 14:30:06;;;;;;;0.52;0.10;;;48.30;36.90;;;;;;4965573;28;20335;-73
2022/07/12 14:32:33;;;;;;;0.93;0.15;;;48.40;36.50;;;;;;4965219;29;20269;-73
2022/07/12 14:34:58;;;;;;;0.45;0.15;;;49.70;37.30;;;;;;4965763;29;20047;-73
2022/07/12 14:37:24;;;;;;;1.10;0.30;;;49.80;36.70;;;;;;4965614;29;20046;-73
2022/07/12 14:39:50;;;;;;;0.77;0.20;;;49.80;37.30;;;;;;4965690;28;20031;-73
2022/07/12 14:42:17;;;;;;;0.63;0.10;;;48.50;37.40;;;;;;4964801;29;20265;-73
2022/07/12 14:44:43;;;;;;;0.45;0.10;;;49.40;37.70;;;;;;4964378;29;20031;-73
2022/07/12 14:47:10;;;;;;;1.27;0.30;;;49.70;37.50;;;;;;4964872;28;20039;-73
2022/07/12 14:49:36;;;;;;;0.63;0.15;;;48.60;37.20;;;;;;4965076;29;20072;-74
2022/07/12 14:52:05;;;;;;;0.50;0.10;;;48.20;37.30;;;;;;4965626;29;20019;-74
2022/07/12 14:54:30;;;;;;;1.40;0.20;;;47.60;37.90;;;;;;4965107;29;20023;-73
2022/07/12 14:56:56;;;;;;;0.20;0.10;;;47.90;37.90;;;;;;4965145;29;20106;-73
2022/07/12 14:59:22;;;;;;;2.33;0.10;;;47.60;37.60;;;;;;4964716;29;20031;-73
2022/07/12 15:01:49;;;;;;;1.45;0.10;;;47.60;37.70;;;;;;4964202;28;20055;-73
2022/07/12 15:04:14;;;;;;;0.70;0.10;;;48.00;37.50;;;;;;4965009;29;20380;-74
2022/07/12 15:06:40;;;;;;;0.77;0.20;;;48.50;37.40;;;;;;4964968;29;20035;-74
2022/07/12 15:09:06;;;;;;;0.73;0.13;;;49.00;37.00;;;;;;4965113;29;20082;-74
2022/07/12 15:11:32;;;;;;;0.40;0.20;;;49.30;37.60;;;;;;4964478;29;20428;-74
2022/07/12 15:13:58;;;;;;;2.20;0.10;;;49.60;36.90;;;;;;4965010;29;20062;-73
2022/07/12 15:16:23;;;;;;;0.50;0.20;;;49.10;37.10;;;;;;4963807;28;20073;-73
2022/07/12 15:18:49;;;;;;;0.53;0.20;;;49.40;37.50;;;;;;4964837;29;20035;-73
2022/07/12 15:21:15;;;;;;;3.90;0.20;;;49.20;37.10;;;;;;4964351;29;20053;-74
2022/07/12 15:23:41;;;;;;;0.30;0.10;;;48.60;37.60;;;;;;4964665;29;20336;-73
2022/07/12 15:26:13;;;;;;;0.63;0.10;;;49.00;36.90;;;;;;4964931;29;20042;-73
2022/07/12 15:28:50;;;;;;;2.20;0.10;;;48.80;36.70;;;;;;4953849;29;20435;-73
2022/07/12 15:31:16;;;;;;;0.68;0.10;;;48.90;36.70;;;;;;4963575;28;20269;-73
2022/07/12 15:33:41;;;;;;;1.70;0.10;;;49.70;36.70;;;;;;4964601;29;20039;-73
2022/07/12 15:36:07;;;;;;;1.07;0.10;;;50.00;36.60;;;;;;4964207;29;20110;-73
2022/07/12 15:38:34;;;;;;;2.30;0.30;;;50.40;35.90;;;;;;4964201;29;20035;-73
2022/07/12 15:40:59;;;;;;;;;;;49.40;36.10;;;;;;4964896;29;20050;-73
2022/07/12 15:43:25;;;;;;;0.55;0.20;;;49.60;36.10;;;;;;4964038;29;19954;-74
2022/07/12 15:45:51;;;;;;;1.80;0.20;;;49.70;36.00;;;;;;4963642;28;20039;-73
2022/07/12 15:48:17;;;;;;;1.57;0.23;;;49.70;36.10;;;;;;4963636;29;20328;-74
2022/07/12 15:50:43;;;;;;;2.30;0.20;;;50.30;36.00;;;;;;4964115;28;20094;-73
2022/07/12 15:53:27;;;;;;;0.53;0.20;;;50.10;36.30;;;;;;4964255;29;20313;-73
2022/07/12 15:55:59;;;;;;;0.35;0.10;;;50.40;36.10;;;;;;4964283;29;20094;-74
2022/07/12 15:58:36;;;;;;;0.73;0.20;;;50.80;36.10;;;;;;4963498;29;20387;-74
2022/07/12 16:01:03;;;;;;;1.17;0.20;;;50.20;35.70;;;;;;4963627;28;20043;-73
2022/07/12 16:03:29;;;;;;;0.50;0.13;;;50.80;35.80;;;;;;4963575;29;20078;-74
2022/07/12 16:05:59;;;;;;;0.82;0.10;;;48.90;35.70;;;;;;4964305;29;20046;-74
2022/07/12 16:08:27;;;;;;;0.60;0.20;;;48.30;36.60;;;;;;4946284;29;20035;-74
2022/07/12 16:10:53;;;;;;;0.50;0.10;;;47.70;36.50;;;;;;4963807;29;20301;-74
2022/07/12 16:13:19;;;;;;;0.80;0.17;;;47.70;37.80;;;;;;4963342;29;20078;-74
2022/07/12 16:15:45;;;;;;;1.43;0.13;;;47.70;36.80;;;;;;4946080;29;20269;-73
2022/07/12 16:18:14;;;;;;;1.87;0.20;;;48.30;36.90;;;;;;4963991;29;20042;-73
2022/07/12 16:20:40;;;;;;;1.15;0.20;;;47.90;36.90;;;;;;4963076;29;20027;-74
2022/07/12 16:23:06;;;;;;;4.15;0.20;;;48.30;36.50;;;;;;4963821;29;20078;-74
2022/07/12 16:25:34;;;;;;;0.77;0.43;;;49.00;36.80;;;;;;4963155;29;20031;-73
2022/07/12 16:28:00;;;;;;;0.57;0.17;;;48.60;36.40;;;;;;4957426;29;20112;-74
2022/07/12 16:30:26;;;;;;;0.95;0.20;;;48.20;36.40;;;;;;4943864;29;20040;-74
2022/07/12 16:32:52;;;;;;;0.30;0.10;;;48.50;36.70;;;;;;4959417;29;20070;-74
2022/07/12 16:35:17;;;;;;;0.17;0.10;;;48.60;35.70;;;;;;4963048;29;20042;-75
2022/07/12 16:37:45;;;;;;;1.50;0.23;;;48.20;35.90;;;;;;4963686;29;20031;-73
2022/07/12 16:40:12;;;;;;;0.70;0.20;;;48.30;36.10;;;;;;4963765;29;20261;-73
2022/07/12 16:42:37;;;;;;;2.88;0.20;;;49.10;36.20;;;;;;4963232;29;20542;-74
2022/07/12 16:45:03;;;;;;;0.33;0.10;;;49.50;36.30;;;;;;4963189;29;20050;-72
2022/07/12 16:47:29;;;;;;;0.67;0.20;;;49.60;36.20;;;;;;4963443;29;20034;-72
2022/07/12 16:49:55;;;;;;;0.30;0.10;;;48.90;36.40;;;;;;4963847;29;20026;-72
2022/07/12 16:52:21;;;;;;;1.23;0.40;;;48.50;36.10;;;;;;4963285;29;20035;-72
2022/07/12 16:54:46;;;;;;;0.90;0.20;;;47.00;36.50;;;;;;4963677;29;20039;-74
2022/07/12 16:57:12;;;;;;;1.63;0.40;;;45.10;37.30;;;;;;4963565;29;20107;-74
2022/07/12 16:59:38;;;;;;;1.23;0.40;;;43.10;38.40;;;;;;4946111;29;20055;-74
2022/07/12 17:02:04;;;;;;;0.90;0.20;;;41.20;39.70;;;;;;4963776;28;20110;-74
2022/07/12 17:04:30;;;;;;;0.75;0.10;;;40.10;40.70;;;;;;4966933;29;20042;-73
2022/07/12 17:06:56;;;;;;;1.20;0.20;;;39.20;41.50;;;;;;4966052;29;20225;-73
2022/07/12 17:09:23;;;;;;;0.40;0.10;;;39.10;42.00;;;;;;4966644;29;20094;-74
2022/07/12 17:11:49;;;;;;;0.60;0.20;;;39.90;41.30;;;;;;4967014;29;20035;-74
2022/07/12 17:14:17;;;;;;;1.60;0.20;;;41.90;40.20;;;;;;4967115;29;20042;-74
2022/07/12 17:16:43;;;;;;;1.05;0.30;;;43.50;39.00;;;;;;4965804;28;20058;-74
2022/07/12 17:19:11;;;;;;;1.65;0.25;;;44.60;38.00;;;;;;4967081;29;20077;-73
2022/07/12 17:21:38;;;;;;;1.55;0.10;;;44.80;37.50;;;;;;4967039;29;20022;-74
2022/07/12 17:24:04;;;;;;;0.70;0.20;;;45.00;37.50;;;;;;4967377;29;20053;-73
2022/07/12 17:26:30;;;;;;;1.77;0.20;;;44.80;37.30;;;;;;4966374;29;20039;-73
2022/07/12 17:28:56;;;;;;;0.65;0.20;;;44.90;37.60;;;;;;4953458;29;20040;-73
2022/07/12 17:31:24;;;;;;;0.60;0.30;;;44.80;37.60;;;;;;4946769;29;20048;-73
2022/07/12 17:33:52;;;;;;;2.22;0.25;;;44.30;37.70;;;;;;4954763;29;20042;-73
2022/07/12 17:36:23;;;;;;;1.13;0.20;;;43.70;38.20;;;;;;4966755;29;20043;-73
2022/07/12 17:38:52;;;;;;;0.50;0.10;;;43.90;38.30;;;;;;4965581;29;20047;-74
2022/07/12 17:41:18;;;;;;;1.15;0.20;;;43.60;38.10;;;;;;4949178;29;20178;-73
2022/07/12 17:43:45;;;;;;;0.68;0.20;;;43.10;38.20;;;;;;4965906;29;20026;-73
2022/07/12 17:46:11;;;;;;;0.73;0.30;;;42.80;38.20;;;;;;4966087;29;20071;-74
2022/07/12 17:48:39;;;;;;;1.75;0.35;;;42.90;38.70;;;;;;4966471;29;20023;-74
2022/07/12 17:51:05;;;;;;;;;;;42.80;38.60;;;;;;4967044;29;20049;-73
2022/07/12 17:53:30;;;;;;;1.73;0.50;;;43.00;38.40;;;;;;4958880;28;19915;-74
2022/07/12 17:55:56;;;;;;;1.27;0.32;;;42.60;38.70;;;;;;4954524;29;20175;-74
2022/07/12 17:58:37;;;;;;;1.30;0.30;;;42.70;38.80;;;;;;4960785;29;20027;-73
2022/07/12 18:01:08;;;;;;;1.33;0.35;;;41.90;38.80;;;;;;4964022;28;20050;-73
2022/07/12 18:03:36;;;;;;;1.00;0.28;;;41.70;39.30;;;;;;4947138;29;20119;-74